createdAt,value
2022-10-23T00:01:20.100Z,99277.41
2022-10-23T00:03:47.769Z,99275.56
2022-10-23T00:06:14.633Z,99281.28
2022-10-23T00:08:43.431Z,99279.56
2022-10-23T00:11:12.742Z,99275.69
2022-10-23T00:13:40.341Z,99271.47
2022-10-23T00:16:07.643Z,99270.41
2022-10-23T00:18:34.436Z,99273.47
2022-10-23T00:21:01.914Z,99263.88
2022-10-23T00:23:28.390Z,99273.25
2022-10-23T00:25:55.018Z,99272.88
2022-10-23T00:28:21.493Z,99272.19
2022-10-23T00:30:48.242Z,99271.03
2022-10-23T00:33:14.728Z,99270.38
2022-10-23T00:35:42.330Z,99262.66
2022-10-23T00:38:09.765Z,99269.94
2022-10-23T00:40:37.541Z,99268.41
2022-10-23T00:43:04.074Z,99267.69
2022-10-23T00:45:33.488Z,99256.25
2022-10-23T00:48:03.995Z,99273.09
2022-10-23T00:50:33.214Z,99254.25
2022-10-23T00:53:03.323Z,99263.72
2022-10-23T00:55:32.190Z,99259.09
2022-10-23T00:57:59.171Z,99259.25
2022-10-23T01:00:51.753Z,99250.50
2022-10-23T01:03:20.115Z,99258.09
2022-10-23T01:05:54.956Z,99265.75
2022-10-23T01:08:35.184Z,99267.84
2022-10-23T01:11:19.659Z,99259.53
2022-10-23T01:14:00.610Z,99258.69
2022-10-23T01:16:34.570Z,99263.53
2022-10-23T01:19:20.151Z,99263.72
2022-10-23T01:22:04.131Z,99270.56
2022-10-23T01:24:56.705Z,99266.81
2022-10-23T01:27:27.039Z,99270.28
2022-10-23T01:30:11.931Z,99266.88
2022-10-23T01:32:44.974Z,99265.38
2022-10-23T01:35:16.450Z,99257.91
2022-10-23T01:37:47.825Z,99255.81
2022-10-23T01:40:24.356Z,99253.94
2022-10-23T01:42:56.690Z,99251.88
2022-10-23T01:45:40.055Z,99256.34
2022-10-23T01:48:11.751Z,99262.13
2022-10-23T01:50:40.356Z,99258.22
2022-10-23T01:53:07.245Z,99255.84
2022-10-23T01:55:34.360Z,99250.31
2022-10-23T01:58:03.468Z,99254.03
2022-10-23T02:00:30.916Z,99254.38
2022-10-23T02:02:58.792Z,99261.03
2022-10-23T02:05:27.544Z,99251.06
2022-10-23T02:07:54.724Z,99245.13
2022-10-23T02:10:23.106Z,99245.44
2022-10-23T02:13:08.121Z,99235.22
2022-10-23T02:15:40.634Z,99237.47
2022-10-23T02:18:25.756Z,99216.97
2022-10-23T02:21:02.520Z,99220.41
2022-10-23T02:24:15.255Z,99219.06
2022-10-23T02:26:50.829Z,99219.19
2022-10-23T02:29:30.237Z,99221.00
2022-10-23T02:31:56.797Z,99213.28
2022-10-23T02:34:23.369Z,99210.06
2022-10-23T02:36:49.967Z,99211.19
2022-10-23T02:39:16.584Z,99205.22
2022-10-23T02:42:20.324Z,99200.84
2022-10-23T02:45:12.172Z,99202.69
2022-10-23T02:48:12.246Z,99202.16
2022-10-23T02:50:53.861Z,99197.06
2022-10-23T02:53:59.154Z,99188.88
2022-10-23T02:56:50.037Z,99192.00
2022-10-23T02:59:27.710Z,99181.56
2022-10-23T03:02:08.431Z,99174.91
2022-10-23T03:04:36.648Z,99175.63
2022-10-23T03:07:03.310Z,99165.59
2022-10-23T03:09:30.980Z,99166.91
2022-10-23T03:11:57.468Z,99160.69
2022-10-23T03:14:23.896Z,99155.91
2022-10-23T03:16:50.338Z,99144.56
2022-10-23T03:19:16.721Z,99150.84
2022-10-23T03:21:43.429Z,99148.06
2022-10-23T03:24:09.872Z,99140.94
2022-10-23T03:26:36.594Z,99130.34
2022-10-23T03:29:03.014Z,99131.44
2022-10-23T03:31:29.660Z,99131.06
2022-10-23T03:33:56.085Z,99134.72
2022-10-23T03:36:25.046Z,99128.81
2022-10-23T03:38:51.859Z,99130.22
2022-10-23T03:41:18.490Z,99125.00
2022-10-23T03:43:44.965Z,99123.13
2022-10-23T03:46:12.945Z,99118.25
2022-10-23T03:48:39.588Z,99119.84
2022-10-23T03:51:07.916Z,99132.06
2022-10-23T03:53:34.740Z,99142.41
2022-10-23T03:56:01.416Z,99146.88
2022-10-23T03:58:27.870Z,99140.13
2022-10-23T04:00:54.467Z,99135.09
2022-10-23T04:03:20.873Z,99123.78
2022-10-23T04:05:50.003Z,99130.53
2022-10-23T04:08:20.054Z,99130.91
2022-10-23T04:10:47.005Z,99129.41
2022-10-23T04:13:13.458Z,99127.03
2022-10-23T04:15:40.108Z,99120.88
2022-10-23T04:18:06.896Z,99111.47
2022-10-23T04:20:33.325Z,99107.44
2022-10-23T04:22:59.865Z,99105.09
2022-10-23T04:25:26.391Z,99102.75
2022-10-23T04:27:52.934Z,99114.41
2022-10-23T04:30:19.378Z,99112.38
2022-10-23T04:32:45.882Z,99093.03
2022-10-23T04:35:12.365Z,99092.34
2022-10-23T04:37:38.929Z,99091.47
2022-10-23T04:40:05.853Z,99099.06
2022-10-23T04:42:32.334Z,99103.44
2022-10-23T04:44:58.806Z,99094.69
2022-10-23T04:47:25.394Z,99094.69
2022-10-23T04:49:51.819Z,99092.31
2022-10-23T04:52:18.382Z,99096.16
2022-10-23T04:54:44.822Z,99081.34
2022-10-23T04:57:11.421Z,99071.25
2022-10-23T04:59:37.866Z,99076.66
2022-10-23T05:02:04.659Z,99074.28
2022-10-23T05:04:31.359Z,99069.75
2022-10-23T05:06:57.941Z,99065.38
2022-10-23T05:09:24.415Z,99070.63
2022-10-23T05:11:50.993Z,99061.16
2022-10-23T05:14:21.939Z,99066.19
2022-10-23T05:17:12.864Z,99070.72
2022-10-23T05:19:45.881Z,99066.84
2022-10-23T05:22:13.370Z,99057.25
2022-10-23T05:24:40.340Z,99065.66
2022-10-23T05:27:06.761Z,99060.81
2022-10-23T05:29:33.279Z,99056.59
2022-10-23T05:32:04.465Z,99051.41
2022-10-23T05:34:35.020Z,99045.38
2022-10-23T05:37:03.375Z,99053.94
2022-10-23T05:39:30.397Z,99045.00
2022-10-23T05:41:56.998Z,99046.34
2022-10-23T05:44:23.728Z,99048.88
2022-10-23T05:46:50.474Z,99047.50
2022-10-23T05:49:17.024Z,99040.47
2022-10-23T05:51:43.549Z,99039.63
2022-10-23T05:54:10.214Z,99042.44
2022-10-23T05:56:41.479Z,99042.75
2022-10-23T05:59:08.417Z,99033.53
2022-10-23T06:01:34.977Z,99019.56
2022-10-23T06:04:01.647Z,99023.59
2022-10-23T06:06:28.262Z,99020.25
2022-10-23T06:08:55.024Z,99007.16
2022-10-23T06:11:21.825Z,99012.53
2022-10-23T06:13:48.549Z,99008.16
2022-10-23T06:16:21.141Z,99008.47
2022-10-23T06:18:48.381Z,99003.09
2022-10-23T06:21:15.819Z,99001.44
2022-10-23T06:23:43.365Z,99012.22
2022-10-23T06:26:13.465Z,99003.81
2022-10-23T06:28:40.783Z,98997.28
2022-10-23T06:31:09.578Z,98995.25
2022-10-23T06:33:36.759Z,99000.78
2022-10-23T06:36:05.416Z,99003.84
2022-10-23T06:38:37.251Z,98994.91
2022-10-23T06:41:04.847Z,99003.50
2022-10-23T06:43:31.670Z,99002.16
2022-10-23T06:46:02.021Z,99009.38
2022-10-23T06:48:28.446Z,99010.72
2022-10-23T06:50:55.764Z,98995.09
2022-10-23T06:53:24.773Z,98995.25
2022-10-23T06:55:55.312Z,98998.47
2022-10-23T06:58:22.245Z,98993.59
2022-10-23T07:00:49.397Z,98987.03
2022-10-23T07:03:16.264Z,98990.75
2022-10-23T07:05:44.874Z,98989.41
2022-10-23T07:08:11.392Z,98980.50
2022-10-23T07:10:42.665Z,98990.25
2022-10-23T07:13:09.984Z,98988.91
2022-10-23T07:15:37.679Z,98984.06
2022-10-23T07:18:05.029Z,98986.06
2022-10-23T07:20:31.668Z,98982.38
2022-10-23T07:22:58.404Z,98973.44
2022-10-23T07:25:26.320Z,98981.34
2022-10-23T07:27:55.349Z,98974.59
2022-10-23T07:30:22.096Z,98981.03
2022-10-23T07:32:48.726Z,98977.47
2022-10-23T07:37:46.902Z,98970.41
2022-10-23T07:40:14.580Z,98959.31
2022-10-23T07:42:41.385Z,98962.50
2022-10-23T07:45:08.687Z,98980.66
2022-10-23T07:47:35.225Z,98980.81
2022-10-23T07:50:01.838Z,98987.75
2022-10-23T07:52:32.005Z,98990.41
2022-10-23T07:55:01.748Z,98973.06
2022-10-23T07:57:28.369Z,98973.94
2022-10-23T07:59:54.899Z,98969.53
2022-10-23T08:02:21.530Z,98976.63
2022-10-23T08:04:51.298Z,98971.00
2022-10-23T08:07:17.963Z,98969.66
2022-10-23T08:09:44.437Z,98969.41
2022-10-23T08:12:11.999Z,98965.69
2022-10-23T08:14:38.548Z,98975.44
2022-10-23T08:17:05.456Z,98974.41
2022-10-23T08:19:32.250Z,98967.69
2022-10-23T08:21:58.683Z,98959.91
2022-10-23T08:24:26.252Z,98962.22
2022-10-23T08:26:52.766Z,98960.47
2022-10-23T08:29:19.414Z,98957.09
2022-10-23T08:31:45.895Z,98952.66
2022-10-23T08:34:13.280Z,98945.50
2022-10-23T08:36:39.677Z,98948.91
2022-10-23T08:39:06.790Z,98941.97
2022-10-23T08:41:47.845Z,98942.59
2022-10-23T08:44:23.487Z,98933.88
2022-10-23T08:47:06.689Z,98938.91
2022-10-23T08:50:03.230Z,98933.03
2022-10-23T08:52:45.661Z,98934.28
2022-10-23T08:55:23.461Z,98934.41
2022-10-23T08:57:58.607Z,98937.13
2022-10-23T09:00:24.926Z,98917.66
2022-10-23T09:02:53.756Z,98913.28
2022-10-23T09:05:31.939Z,98900.41
2022-10-23T09:08:28.138Z,98903.69
2022-10-23T09:11:27.799Z,98907.22
2022-10-23T09:14:12.584Z,98906.75
2022-10-23T09:16:49.270Z,98899.09
2022-10-23T09:19:26.270Z,98900.13
2022-10-23T09:21:54.288Z,98905.06
2022-10-23T09:24:24.656Z,98899.75
2022-10-23T09:26:53.028Z,98892.00
2022-10-23T09:29:35.919Z,98891.09
2022-10-23T09:32:05.651Z,98899.19
2022-10-23T09:34:33.825Z,98902.09
2022-10-23T09:37:02.884Z,98897.78
2022-10-23T09:39:36.764Z,98887.44
2022-10-23T09:42:24.729Z,98878.50
2022-10-23T09:44:54.005Z,98873.56
2022-10-23T09:47:23.942Z,98870.00
2022-10-23T09:49:52.962Z,98874.00
2022-10-23T09:52:24.602Z,98865.13
2022-10-23T09:54:54.572Z,98851.66
2022-10-23T09:57:40.645Z,98850.25
2022-10-23T10:00:25.424Z,98857.63
2022-10-23T10:03:07.019Z,98857.88
2022-10-23T10:05:38.623Z,98862.25
2022-10-23T10:08:21.576Z,98867.34
2022-10-23T10:10:52.356Z,98867.53
2022-10-23T10:13:45.142Z,98859.72
2022-10-23T10:16:29.944Z,98853.84
2022-10-23T10:19:08.512Z,98846.31
2022-10-23T10:21:47.714Z,98850.50
2022-10-23T10:24:39.062Z,98851.34
2022-10-23T10:27:31.529Z,98847.72
2022-10-23T10:30:18.946Z,98853.84
2022-10-23T10:33:09.244Z,98861.03
2022-10-23T10:36:03.867Z,98842.00
2022-10-23T10:38:30.252Z,98838.00
2022-10-23T10:41:05.669Z,98846.97
2022-10-23T10:43:49.208Z,98825.44
2022-10-23T10:46:41.586Z,98798.06
2022-10-23T10:49:18.065Z,98779.22
2022-10-23T10:51:48.053Z,98772.06
2022-10-23T10:54:37.697Z,98768.53
2022-10-23T10:57:16.897Z,98780.59
2022-10-23T10:59:46.065Z,98781.22
2022-10-23T11:02:34.014Z,98772.59
2022-10-23T11:05:12.922Z,98781.72
2022-10-23T11:08:11.494Z,98793.06
2022-10-23T11:10:43.328Z,98793.88
2022-10-23T11:13:33.915Z,98754.09
2022-10-23T11:16:09.587Z,98741.13
2022-10-23T11:18:37.617Z,98759.97
2022-10-23T11:21:35.071Z,98776.50
2022-10-23T11:24:16.059Z,98777.53
2022-10-23T11:26:51.941Z,98766.13
2022-10-23T11:29:36.743Z,98759.34
2022-10-23T11:32:21.978Z,98767.63
2022-10-23T11:35:03.867Z,98757.16
2022-10-23T11:37:30.607Z,98763.59
2022-10-23T11:40:09.155Z,98756.19
2022-10-23T11:42:38.684Z,98757.50
2022-10-23T11:45:35.736Z,98750.69
2022-10-23T11:48:03.850Z,98750.75
2022-10-23T11:50:59.103Z,98737.22
2022-10-23T11:53:31.096Z,98731.47
2022-10-23T11:56:02.938Z,98726.94
2022-10-23T11:58:46.923Z,98716.78
2022-10-23T12:01:19.516Z,98708.25
2022-10-23T12:04:00.485Z,98703.38
2022-10-23T12:06:31.840Z,98714.47
2022-10-23T12:09:37.375Z,98706.59
2022-10-23T12:12:10.938Z,98699.34
2022-10-23T12:14:38.832Z,98696.28
2022-10-23T12:17:23.481Z,98681.97
2022-10-23T12:20:03.062Z,98683.03
2022-10-23T12:22:42.395Z,98664.69
2022-10-23T12:25:15.737Z,98672.25
2022-10-23T12:27:52.864Z,98664.84
2022-10-23T12:30:28.487Z,98660.31
2022-10-23T12:33:24.565Z,98639.06
2022-10-23T12:36:07.745Z,98628.44
2022-10-23T12:38:43.747Z,98621.34
2022-10-23T12:41:28.616Z,98625.69
2022-10-23T12:44:01.004Z,98634.88
2022-10-23T12:46:30.282Z,98628.22
2022-10-23T12:48:58.446Z,98612.34
2022-10-23T12:51:33.099Z,98612.16
2022-10-23T12:54:00.736Z,98605.72
2022-10-23T12:56:37.497Z,98608.84
2022-10-23T12:59:05.376Z,98617.44
2022-10-23T13:01:34.794Z,98607.44
2022-10-23T13:04:13.037Z,98614.09
2022-10-23T13:06:40.479Z,98613.28
2022-10-23T13:09:20.592Z,98604.50
2022-10-23T13:11:47.473Z,98610.78
2022-10-23T13:14:14.371Z,98604.06
2022-10-23T13:16:40.808Z,98586.16
2022-10-23T13:19:22.330Z,98576.97
2022-10-23T13:21:49.415Z,98564.84
2022-10-23T13:24:20.909Z,98576.75
2022-10-23T13:26:47.759Z,98575.91
2022-10-23T13:29:20.316Z,98575.28
2022-10-23T13:31:47.405Z,98562.97
2022-10-23T13:34:25.289Z,98560.03
2022-10-23T13:36:55.338Z,98559.41
2022-10-23T13:39:27.206Z,98552.53
2022-10-23T13:41:53.888Z,98551.50
2022-10-23T13:44:22.941Z,98554.84
2022-10-23T13:46:51.966Z,98548.53
2022-10-23T13:49:19.381Z,98543.34
2022-10-23T13:51:51.852Z,98546.88
2022-10-23T13:54:24.534Z,98542.69
2022-10-23T13:56:51.743Z,98544.78
2022-10-23T13:59:18.524Z,98545.41
2022-10-23T14:01:46.985Z,98540.84
2022-10-23T14:04:14.546Z,98546.88
2022-10-23T14:06:42.070Z,98542.69
2022-10-23T14:09:12.366Z,98543.75
2022-10-23T14:11:39.068Z,98542.69
2022-10-23T14:14:05.702Z,98544.16
2022-10-23T14:16:32.193Z,98550.22
2022-10-23T14:18:58.695Z,98548.09
2022-10-23T14:21:25.660Z,98543.53
2022-10-23T14:23:53.769Z,98538.75
2022-10-23T14:26:24.378Z,98523.09
2022-10-23T14:28:55.357Z,98527.06
2022-10-23T14:31:21.980Z,98536.44
2022-10-23T14:33:53.899Z,98535.00
2022-10-23T14:36:20.536Z,98526.84
2022-10-23T14:38:47.126Z,98516.00
2022-10-23T14:41:16.395Z,98508.09
2022-10-23T14:43:43.094Z,98497.84
2022-10-23T14:46:22.042Z,98496.97
2022-10-23T14:48:51.056Z,98488.03
2022-10-23T14:51:28.633Z,98490.97
2022-10-23T14:54:01.710Z,98480.09
2022-10-23T14:56:29.930Z,98488.00
2022-10-23T15:02:03.328Z,98481.28
2022-10-23T15:04:29.716Z,98483.34
2022-10-23T15:06:56.248Z,98469.16
2022-10-23T15:09:22.725Z,98473.94
2022-10-23T15:11:50.503Z,98457.88
2022-10-23T15:14:16.908Z,98459.56
2022-10-23T15:16:43.507Z,98450.81
2022-10-23T15:19:15.118Z,98455.59
2022-10-23T15:21:44.942Z,98458.94
2022-10-23T15:24:11.467Z,98460.78
2022-10-23T15:26:38.479Z,98474.53
2022-10-23T15:29:05.476Z,98472.03
2022-10-23T15:31:37.714Z,98483.25
2022-10-23T15:34:05.663Z,98485.75
2022-10-23T15:36:32.612Z,98486.13
2022-10-23T15:39:00.626Z,98475.06
2022-10-23T15:41:32.185Z,98469.47
2022-10-23T15:44:00.550Z,98463.63
2022-10-23T15:46:26.979Z,98454.88
2022-10-23T15:48:53.959Z,98453.06
2022-10-23T15:51:20.869Z,98450.31
2022-10-23T15:53:47.544Z,98431.59
2022-10-23T15:56:14.285Z,98436.19
2022-10-23T15:58:40.889Z,98438.47
2022-10-23T16:01:07.761Z,98430.56
2022-10-23T16:03:36.182Z,98435.53
2022-10-23T16:06:12.404Z,98431.19
2022-10-23T16:08:39.727Z,98433.66
2022-10-23T16:11:15.940Z,98430.94
2022-10-23T16:13:43.559Z,98427.81
2022-10-23T16:16:10.249Z,98440.50
2022-10-23T16:18:36.912Z,98434.88
2022-10-23T16:21:03.656Z,98444.44
2022-10-23T16:23:30.156Z,98446.31
2022-10-23T16:25:56.681Z,98446.28
2022-10-23T16:28:23.180Z,98463.34
2022-10-23T16:30:49.678Z,98464.19
2022-10-23T16:33:16.092Z,98466.06
2022-10-23T16:35:42.641Z,98479.31
2022-10-23T16:38:09.083Z,98484.75
2022-10-23T16:40:35.475Z,98480.81
2022-10-23T16:43:01.981Z,98494.31
2022-10-23T16:45:28.436Z,98516.47
2022-10-23T16:47:55.099Z,98527.22
2022-10-23T16:50:21.768Z,98525.34
2022-10-23T16:52:49.910Z,98529.19
2022-10-23T16:55:18.627Z,98539.19
2022-10-23T16:57:45.113Z,98552.84
2022-10-23T17:00:11.799Z,98573.22
2022-10-23T17:02:38.401Z,98582.16
2022-10-23T17:05:05.331Z,98595.91
2022-10-23T17:07:33.087Z,98613.97
2022-10-23T17:09:59.524Z,98628.19
2022-10-23T17:12:26.266Z,98644.28
2022-10-23T17:14:52.688Z,98681.47
2022-10-23T17:17:19.290Z,98727.41
2022-10-23T17:19:46.652Z,98722.88
2022-10-23T17:22:13.952Z,98723.09
2022-10-23T17:24:43.528Z,98715.00
2022-10-23T17:27:11.786Z,98696.81
2022-10-23T17:29:39.467Z,98696.28
2022-10-23T17:32:06.068Z,98713.72
2022-10-23T17:34:34.052Z,98765.72
2022-10-23T17:37:00.840Z,98787.78
2022-10-23T17:39:29.198Z,98782.66
2022-10-23T17:41:56.690Z,98758.63
2022-10-23T17:44:24.226Z,98747.84
2022-10-23T17:46:53.529Z,98732.00
2022-10-23T17:49:21.181Z,98709.66
2022-10-23T17:51:54.621Z,98735.53
2022-10-23T17:54:22.439Z,98676.66
2022-10-23T17:56:49.703Z,98630.94
2022-10-23T17:59:19.549Z,98623.84
2022-10-23T18:01:48.397Z,98627.38
2022-10-23T18:04:18.107Z,98624.03
2022-10-23T18:06:49.577Z,98621.50
2022-10-23T18:09:16.590Z,98618.72
2022-10-23T18:11:48.111Z,98609.69
2022-10-23T18:14:17.281Z,98596.56
2022-10-23T18:16:45.981Z,98592.16
2022-10-23T18:19:13.889Z,98572.97
2022-10-23T18:21:40.627Z,98589.84
2022-10-23T18:24:07.785Z,98592.38
2022-10-23T18:26:35.368Z,98587.63
2022-10-23T18:29:07.040Z,98579.69
2022-10-23T18:31:35.409Z,98590.78
2022-10-23T18:34:04.914Z,98586.00
2022-10-23T18:36:35.387Z,98587.06
2022-10-23T18:39:02.911Z,98600.28
2022-10-23T18:41:38.238Z,98589.75
2022-10-23T18:44:04.805Z,98592.47
2022-10-23T18:46:31.891Z,98605.03
2022-10-23T18:48:58.583Z,98599.38
2022-10-23T18:51:28.950Z,98600.47
2022-10-23T18:53:56.231Z,98591.00
2022-10-23T18:56:26.010Z,98591.91
2022-10-23T18:58:57.975Z,98582.84
2022-10-23T19:01:26.987Z,98584.00
2022-10-23T19:06:22.069Z,98585.47
2022-10-23T19:08:51.248Z,98577.31
2022-10-23T19:11:19.573Z,98593.50
2022-10-23T19:13:46.186Z,98594.63
2022-10-23T19:16:30.811Z,98606.88
2022-10-23T19:19:01.405Z,98606.97
2022-10-23T19:21:33.255Z,98587.25
2022-10-23T19:24:07.232Z,98588.44
2022-10-23T19:26:35.745Z,98578.78
2022-10-23T19:29:02.985Z,98581.28
2022-10-23T19:31:29.418Z,98581.38
2022-10-23T19:33:55.931Z,98573.94
2022-10-23T19:36:23.549Z,98571.69
2022-10-23T19:38:50.673Z,98565.16
2022-10-23T19:41:18.307Z,98574.22
2022-10-23T19:43:45.333Z,98583.13
2022-10-23T19:46:12.300Z,98587.03
2022-10-23T19:48:42.405Z,98585.28
2022-10-23T19:51:09.579Z,98589.00
2022-10-23T19:53:36.439Z,98586.22
2022-10-23T19:56:08.139Z,98591.34
2022-10-23T19:58:34.709Z,98592.91
2022-10-23T20:01:15.424Z,98589.13
2022-10-23T20:03:44.515Z,98594.50
2022-10-23T20:06:20.420Z,98596.63
2022-10-23T20:08:47.778Z,98604.53
2022-10-23T20:11:27.983Z,98605.31
2022-10-23T20:13:55.551Z,98611.53
2022-10-23T20:16:29.050Z,98606.50
2022-10-23T20:18:55.728Z,98611.19
2022-10-23T20:21:24.360Z,98616.84
2022-10-23T20:23:51.135Z,98621.78
2022-10-23T20:26:21.142Z,98631.69
2022-10-23T20:28:51.079Z,98629.63
2022-10-23T20:31:19.115Z,98618.44
2022-10-23T20:33:45.927Z,98610.06
2022-10-23T20:36:33.440Z,98611.09
2022-10-23T20:39:04.219Z,98607.06
2022-10-23T20:41:33.179Z,98609.44
2022-10-23T20:44:00.529Z,98599.06
2022-10-23T20:46:27.062Z,98602.22
2022-10-23T20:48:53.756Z,98607.38
2022-10-23T20:51:23.078Z,98599.97
2022-10-23T20:53:50.783Z,98610.78
2022-10-23T20:56:23.462Z,98616.84
2022-10-23T20:58:50.536Z,98616.00
2022-10-23T21:01:17.997Z,98618.69
2022-10-23T21:03:49.708Z,98625.06
2022-10-23T21:06:18.317Z,98637.25
2022-10-23T21:08:45.354Z,98646.56
2022-10-23T21:11:17.322Z,98654.38
2022-10-23T21:13:45.231Z,98655.50
2022-10-23T21:16:24.841Z,98649.72
2022-10-23T21:18:56.379Z,98661.81
2022-10-23T21:21:24.328Z,98671.88
2022-10-23T21:23:53.083Z,98663.44
2022-10-23T21:26:22.589Z,98666.97
2022-10-23T21:28:56.283Z,98665.19
2022-10-23T21:31:33.539Z,98672.56
2022-10-23T21:34:00.231Z,98678.78
2022-10-23T21:36:27.458Z,98674.03
2022-10-23T21:38:56.442Z,98682.63
2022-10-23T21:41:31.689Z,98688.31
2022-10-23T21:44:01.848Z,98685.78
2022-10-23T21:46:30.172Z,98683.34
2022-10-23T21:48:58.614Z,98699.09
2022-10-23T21:51:26.696Z,98691.38
2022-10-23T21:53:54.110Z,98685.69
2022-10-23T21:56:28.792Z,98686.97
2022-10-23T21:58:56.700Z,98684.69
2022-10-23T22:01:23.303Z,98687.38
2022-10-23T22:03:50.066Z,98691.75
2022-10-23T22:06:22.354Z,98685.31
2022-10-23T22:08:49.405Z,98680.16
2022-10-23T22:11:16.500Z,98682.03
2022-10-23T22:13:44.315Z,98672.88
2022-10-23T22:16:12.119Z,98672.88
2022-10-23T22:18:38.544Z,98665.00
2022-10-23T22:21:15.163Z,98660.25
2022-10-23T22:23:42.326Z,98659.78
2022-10-23T22:26:36.033Z,98661.81
2022-10-23T22:29:05.665Z,98663.41
2022-10-23T22:31:33.417Z,98658.59
2022-10-23T22:34:13.021Z,98648.78
2022-10-23T22:36:47.838Z,98653.06
2022-10-23T22:39:14.713Z,98661.81
2022-10-23T22:41:43.223Z,98660.88
2022-10-23T22:44:11.655Z,98659.69
2022-10-23T22:46:38.496Z,98658.38
2022-10-23T22:51:32.454Z,98673.94
2022-10-23T22:53:59.540Z,98685.47
2022-10-23T22:56:28.534Z,98671.88
2022-10-23T22:58:56.370Z,98686.50
2022-10-23T23:01:26.717Z,98679.16
2022-10-23T23:03:53.730Z,98679.50
2022-10-23T23:06:21.949Z,98674.97
2022-10-23T23:08:49.778Z,98674.50
2022-10-23T23:11:18.129Z,98682.09
2022-10-23T23:13:45.390Z,98667.78
2022-10-23T23:16:21.968Z,98663.50
2022-10-23T23:18:49.257Z,98674.09
2022-10-23T23:21:16.809Z,98672.16
2022-10-23T23:23:43.594Z,98673.81
2022-10-23T23:26:10.758Z,98668.59
2022-10-23T23:28:37.601Z,98665.06
2022-10-23T23:31:07.572Z,98670.00
2022-10-23T23:33:35.255Z,98670.75
2022-10-23T23:36:07.256Z,98675.50
2022-10-23T23:38:34.632Z,98671.31
2022-10-23T23:41:01.282Z,98670.00
2022-10-23T23:43:27.802Z,98665.81
2022-10-23T23:45:54.336Z,98662.00
2022-10-23T23:48:20.775Z,98656.22
2022-10-23T23:50:47.425Z,98665.72
2022-10-23T23:53:13.958Z,98651.56
2022-10-23T23:55:40.570Z,98658.19
2022-10-23T23:58:07.106Z,98649.34
